Time;durP1;ratioP1;P1;durP2;ratioP2;P2;SDS_P1;SDS_P2;PMS_P1;PMS_P2;Temp;Humidity;BMP_temperature;BMP_pressure;BME280_temperature;BME280_humidity;BME280_pressure;Samples;Min_cycle;Max_cycle;Signal;HPM_P1;HPM_P2
2023/06/10 00:01:37;;;;;;;;;;;25.30;61.60;;;;;;5044316;28;42811;-84
2023/06/10 00:04:04;;;;;;;;;;;25.30;61.60;;;;;;5044277;28;42881;-82
2023/06/10 00:06:35;;;;;;;;;;;25.30;62.20;;;;;;5044620;28;42944;-85
2023/06/10 00:09:05;;;;;;;;;;;25.20;61.50;;;;;;5044509;28;43458;-84
2023/06/10 00:11:31;;;;;;;;;;;25.30;61.50;;;;;;5044265;28;43403;-84
2023/06/10 00:13:56;;;;;;;;;;;25.30;61.40;;;;;;5043533;28;44395;-83
2023/06/10 00:16:22;;;;;;;;;;;25.30;61.40;;;;;;5043692;28;43027;-84
2023/06/10 00:18:48;;;;;;;;;;;25.30;61.40;;;;;;5040922;28;43035;-82
2023/06/10 00:21:14;;;;;;;;;;;25.30;62.00;;;;;;5055507;28;43169;-83
2023/06/10 00:23:41;;;;;;;;;;;25.30;61.40;;;;;;5045430;28;43526;-83
2023/06/10 00:26:06;;;;;;;;;;;25.30;61.40;;;;;;5047762;28;42945;-83
2023/06/10 00:28:32;;;;;;;;;;;25.30;61.40;;;;;;5047455;28;43296;-84
2023/06/10 00:30:58;;;;;;;;;;;25.30;61.40;;;;;;5047449;28;43104;-84
2023/06/10 00:33:23;;;;;;;;;;;25.30;61.30;;;;;;5046890;28;43222;-84
2023/06/10 00:35:49;;;;;;;;;;;25.30;61.30;;;;;;5046828;28;43046;-85
2023/06/10 00:38:14;;;;;;;;;;;25.30;61.40;;;;;;5046307;28;44218;-85
2023/06/10 00:40:43;;;;;;;;;;;25.30;61.40;;;;;;5047063;28;42883;-84
2023/06/10 00:43:08;;;;;;;;;;;25.30;61.40;;;;;;5046777;28;43073;-85
2023/06/10 00:45:34;;;;;;;;;;;25.30;61.30;;;;;;5047307;28;43030;-85
2023/06/10 00:48:00;;;;;;;;;;;25.30;61.40;;;;;;5047339;28;42891;-83
2023/06/10 00:50:26;;;;;;;;;;;25.30;61.40;;;;;;5029295;28;42885;-84
2023/06/10 00:52:53;;;;;;;;;;;25.30;61.50;;;;;;5040764;28;44414;-84
2023/06/10 00:55:18;;;;;;;;;;;25.30;61.40;;;;;;5046654;28;43039;-84
2023/06/10 00:57:48;;;;;;;;;;;25.30;61.40;;;;;;5047020;28;42919;-84
2023/06/10 01:00:15;;;;;;;;;;;25.30;61.40;;;;;;5046807;28;43071;-84
2023/06/10 01:02:40;;;;;;;;;;;25.30;61.50;;;;;;5046732;28;42962;-84
2023/06/10 01:05:07;;;;;;;;;;;21.80;59.60;;;;;;5046629;28;43003;-82
2023/06/10 01:07:48;;;;;;;;;;;25.30;61.40;;;;;;5046818;28;43080;-85
2023/06/10 01:10:34;;;;;;;;;;;25.30;61.50;;;;;;5034284;28;42980;-84
2023/06/10 01:13:02;;;;;;;;;;;25.30;61.40;;;;;;5011080;28;43494;-84
2023/06/10 01:15:31;;;;;;;;;;;25.30;61.40;;;;;;5046635;28;42987;-83
2023/06/10 01:17:57;;;;;;;;;;;25.30;61.40;;;;;;5046107;28;42927;-82
2023/06/10 01:20:24;;;;;;;;;;;25.30;61.40;;;;;;5036751;28;43057;-85
2023/06/10 01:22:50;;;;;;;;;;;25.30;61.40;;;;;;5027405;28;44696;-84
2023/06/10 01:25:17;;;;;;;;;;;25.30;61.40;;;;;;5046805;28;42911;-83
2023/06/10 01:27:44;;;;;;;;;;;25.30;61.40;;;;;;5046907;28;43074;-85
2023/06/10 01:30:18;;;;;;;;;;;25.30;61.40;;;;;;5035453;28;42954;-83
2023/06/10 01:32:46;;;;;;;;;;;25.30;61.30;;;;;;5045466;28;42922;-85
2023/06/10 01:35:12;;;;;;;;;;;25.30;61.30;;;;;;5045485;28;42908;-84
2023/06/10 01:37:39;;;;;;;;;;;25.30;61.20;;;;;;5045612;28;43689;-84
2023/06/10 01:40:05;;;;;;;;;;;25.30;61.20;;;;;;5046700;28;42998;-82
2023/06/10 01:42:32;;;;;;;;;;;24.50;60.70;;;;;;5045868;28;42867;-85
2023/06/10 01:44:57;;;;;;;;;;;25.30;61.20;;;;;;5046375;28;42922;-83
2023/06/10 01:47:23;;;;;;;;;;;25.30;61.30;;;;;;5040525;28;43303;-85
2023/06/10 01:49:48;;;;;;;;;;;25.30;61.40;;;;;;5033281;28;43467;-83
2023/06/10 01:52:14;;;;;;;;;;;;;;;;;;5044109;28;42936;-84
2023/06/10 01:54:40;;;;;;;;;;;25.30;61.30;;;;;;5028409;28;42845;-83
2023/06/10 01:57:06;;;;;;;;;;;25.30;61.20;;;;;;5046357;28;42940;-83
2023/06/10 01:59:31;;;;;;;;;;;25.30;61.20;;;;;;5046708;28;42963;-82
2023/06/10 02:01:57;;;;;;;;;;;25.30;61.20;;;;;;5045945;28;43819;-84
2023/06/10 02:04:22;;;;;;;;;;;25.30;61.20;;;;;;5046272;28;42826;-84
2023/06/10 02:06:48;;;;;;;;;;;25.30;61.20;;;;;;5046226;28;43041;-83
2023/06/10 02:09:13;;;;;;;;;;;25.30;61.20;;;;;;5045542;28;43077;-83
2023/06/10 02:11:39;;;;;;;;;;;25.30;61.20;;;;;;5045700;28;43132;-85
2023/06/10 02:14:05;;;;;;;;;;;25.30;61.30;;;;;;5046190;28;42991;-82
2023/06/10 02:16:31;;;;;;;;;;;;;;;;;;5045399;28;43567;-84
2023/06/10 02:18:57;;;;;;;;;;;25.30;61.20;;;;;;5045925;28;43002;-84
2023/06/10 02:21:23;;;;;;;;;;;25.30;61.20;;;;;;5044586;28;43304;-82
2023/06/10 02:23:48;;;;;;;;;;;25.30;61.20;;;;;;5045682;28;43161;-84
2023/06/10 02:26:14;;;;;;;;;;;25.30;61.20;;;;;;5044781;28;43446;-84
2023/06/10 02:28:43;;;;;;;;;;;25.30;61.30;;;;;;5046266;28;42956;-82
2023/06/10 02:31:08;;;;;;;;;;;25.30;61.20;;;;;;5045762;28;42915;-85
2023/06/10 02:33:34;;;;;;;;;;;25.30;61.20;;;;;;5045266;28;42888;-84
2023/06/10 02:35:59;;;;;;;;;;;25.30;61.20;;;;;;5045578;28;43023;-83
2023/06/10 02:38:25;;;;;;;;;;;25.30;61.20;;;;;;5045514;28;43068;-83
2023/06/10 02:40:51;;;;;;;;;;;25.30;61.20;;;;;;5044422;28;43847;-83
2023/06/10 02:43:16;;;;;;;;;;;25.30;61.20;;;;;;5045028;28;43132;-82
2023/06/10 02:45:42;;;;;;;;;;;25.30;61.20;;;;;;5044461;28;43002;-84
2023/06/10 02:48:07;;;;;;;;;;;25.30;61.20;;;;;;5045733;28;43297;-83
2023/06/10 02:50:33;;;;;;;;;;;25.30;61.10;;;;;;5044479;28;43672;-82
2023/06/10 02:52:58;;;;;;;;;;;25.30;61.10;;;;;;5026816;28;43007;-83
2023/06/10 02:55:26;;;;;;;;;;;25.30;61.10;;;;;;5044741;28;43065;-85
2023/06/10 02:57:52;;;;;;;;;;;24.60;60.70;;;;;;5045386;28;43002;-83
2023/06/10 03:00:20;;;;;;;;;;;25.30;61.20;;;;;;5044840;28;43523;-85
2023/06/10 03:02:45;;;;;;;;;;;25.30;61.10;;;;;;5045165;28;43045;-82
2023/06/10 03:05:12;;;;;;;;;;;25.30;61.10;;;;;;5044695;28;42875;-85
2023/06/10 03:07:38;;;;;;;;;;;25.30;61.10;;;;;;5045009;28;43086;-86
2023/06/10 03:10:04;;;;;;;;;;;25.30;61.10;;;;;;5044704;28;43395;-82
2023/06/10 03:12:29;;;;;;;;;;;25.30;61.10;;;;;;5044420;28;43172;-82
2023/06/10 03:14:55;;;;;;;;;;;25.20;61.00;;;;;;5044218;28;43914;-84
2023/06/10 03:17:21;;;;;;;;;;;25.30;61.00;;;;;;5045183;28;43043;-83
2023/06/10 03:19:46;;;;;;;;;;;25.20;60.90;;;;;;5044904;28;43041;-85
2023/06/10 03:22:13;;;;;;;;;;;25.20;61.00;;;;;;5044825;28;42963;-83
2023/06/10 03:24:40;;;;;;;;;;;25.30;61.00;;;;;;5044566;28;43970;-84
2023/06/10 03:27:09;;;;;;;;;;;25.30;60.90;;;;;;5043379;28;42989;-82
2023/06/10 03:29:35;;;;;;;;;;;25.30;60.90;;;;;;5044035;28;44386;-84
2023/06/10 03:32:01;;;;;;;;;;;25.20;60.80;;;;;;5044785;28;43145;-85
2023/06/10 03:34:26;;;;;;;;;;;25.20;60.70;;;;;;5044294;28;42938;-84
2023/06/10 03:36:52;;;;;;;;;;;25.30;60.90;;;;;;5044934;28;42853;-83
2023/06/10 03:39:17;;;;;;;;;;;25.30;60.80;;;;;;5044362;28;43626;-84
2023/06/10 03:41:43;;;;;;;;;;;25.30;60.90;;;;;;5044581;28;42900;-84
2023/06/10 03:44:08;;;;;;;;;;;25.20;60.80;;;;;;5044412;28;43406;-84
2023/06/10 03:46:34;;;;;;;;;;;25.20;60.90;;;;;;5044212;28;42940;-82
2023/06/10 03:49:00;;;;;;;;;;;25.20;61.00;;;;;;5043770;28;42947;-83
2023/06/10 03:51:26;;;;;;;;;;;25.20;60.90;;;;;;5044131;28;43062;-84
2023/06/10 03:53:51;;;;;;;;;;;25.20;61.00;;;;;;5041343;28;43077;-83
2023/06/10 03:56:17;;;;;;;;;;;25.20;61.00;;;;;;5024822;28;43065;-84
2023/06/10 03:58:43;;;;;;;;;;;25.20;61.70;;;;;;5041816;28;43067;-83
2023/06/10 04:01:08;;;;;;;;;;;25.20;60.80;;;;;;5043453;28;43060;-84
2023/06/10 04:03:34;;;;;;;;;;;25.30;61.60;;;;;;5043200;28;44006;-85
2023/06/10 04:05:59;;;;;;;;;;;25.20;60.90;;;;;;5042647;28;42947;-86
2023/06/10 04:08:25;;;;;;;;;;;25.20;60.90;;;;;;5042425;28;43159;-84
2023/06/10 04:10:51;;;;;;;;;;;25.20;60.90;;;;;;5039824;28;43001;-85
2023/06/10 04:13:17;;;;;;;;;;;25.30;61.20;;;;;;5015633;28;45300;-84
2023/06/10 04:15:42;;;;;;;;;;;25.20;61.10;;;;;;5035259;28;43011;-85
2023/06/10 04:18:08;;;;;;;;;;;25.20;61.20;;;;;;5031196;28;43022;-84
2023/06/10 04:20:33;;;;;;;;;;;25.20;61.20;;;;;;5035360;28;42981;-83
2023/06/10 04:22:59;;;;;;;;;;;25.20;61.30;;;;;;5032750;28;43476;-84
2023/06/10 04:25:26;;;;;;;;;;;25.20;61.30;;;;;;5031331;28;42967;-85
2023/06/10 04:27:51;;;;;;;;;;;25.20;61.30;;;;;;5018742;28;43732;-84
2023/06/10 04:30:17;;;;;;;;;;;25.20;61.30;;;;;;5036149;28;42903;-84
2023/06/10 04:32:43;;;;;;;;;;;25.20;61.40;;;;;;5042901;28;43860;-83
2023/06/10 04:35:11;;;;;;;;;;;25.20;61.50;;;;;;5038459;28;42910;-83
2023/06/10 04:37:36;;;;;;;;;;;25.20;61.50;;;;;;5041456;28;43414;-82
2023/06/10 04:40:03;;;;;;;;;;;25.20;61.60;;;;;;5038274;28;42923;-85
2023/06/10 04:42:28;;;;;;;;;;;25.20;61.70;;;;;;5039902;28;43526;-83
2023/06/10 04:44:54;;;;;;;;;;;25.20;62.40;;;;;;5025227;28;42986;-85
2023/06/10 04:47:20;;;;;;;;;;;25.10;61.70;;;;;;5024242;28;43454;-83
2023/06/10 04:49:45;;;;;;;;;;;25.20;61.70;;;;;;5035623;28;42857;-84
2023/06/10 04:52:11;;;;;;;;;;;25.20;62.40;;;;;;5038195;28;43494;-83
2023/06/10 04:54:36;;;;;;;;;;;25.10;61.70;;;;;;5040960;28;43161;-83
2023/06/10 04:57:02;;;;;;;;;;;25.20;62.60;;;;;;5021378;28;42849;-82
2023/06/10 04:59:29;;;;;;;;;;;25.20;61.90;;;;;;5042891;28;42916;-84
2023/06/10 05:01:55;;;;;;;;;;;25.20;61.80;;;;;;5040990;28;42904;-81
2023/06/10 05:04:20;;;;;;;;;;;25.20;61.90;;;;;;5043290;28;42907;-83
2023/06/10 05:06:46;;;;;;;;;;;25.10;61.80;;;;;;5041453;28;42895;-83
2023/06/10 05:09:11;;;;;;;;;;;25.20;62.70;;;;;;5044368;28;43070;-82
2023/06/10 05:11:37;;;;;;;;;;;25.20;62.60;;;;;;5045131;28;43578;-83
2023/06/10 05:14:02;;;;;;;;;;;25.20;61.90;;;;;;5046933;28;42957;-83
2023/06/10 05:16:28;;;;;;;;;;;25.20;61.90;;;;;;5043949;28;43210;-81
2023/06/10 05:18:53;;;;;;;;;;;25.10;61.80;;;;;;5045356;28;42955;-82
2023/06/10 05:21:20;;;;;;;;;;;25.10;61.90;;;;;;5045904;28;42975;-82
2023/06/10 05:23:46;;;;;;;;;;;25.20;62.10;;;;;;5043196;28;43005;-80
2023/06/10 05:26:11;;;;;;;;;;;25.20;62.10;;;;;;5041867;28;43211;-87
2023/06/10 05:28:37;;;;;;;;;;;25.20;62.10;;;;;;5045217;28;42888;-86
2023/06/10 05:31:02;;;;;;;;;;;25.10;62.10;;;;;;5042817;28;43501;-84
2023/06/10 05:33:28;;;;;;;;;;;25.10;62.70;;;;;;5042020;28;43011;-81
2023/06/10 05:35:53;;;;;;;;;;;25.10;62.20;;;;;;5043979;28;43028;-82
2023/06/10 05:38:19;;;;;;;;;;;25.10;62.90;;;;;;5040851;28;43086;-82
2023/06/10 05:40:45;;;;;;;;;;;25.10;62.80;;;;;;5036446;28;43562;-85
2023/06/10 05:43:11;;;;;;;;;;;25.20;62.90;;;;;;5051764;28;43152;-81
2023/06/10 05:45:37;;;;;;;;;;;25.20;62.40;;;;;;5044008;28;43344;-80
2023/06/10 05:48:02;;;;;;;;;;;25.20;62.40;;;;;;5044384;28;42914;-80
2023/06/10 05:50:28;;;;;;;;;;;25.10;62.40;;;;;;5035930;28;43407;-79
2023/06/10 05:52:54;;;;;;;;;;;25.10;62.40;;;;;;5044702;28;43286;-80
2023/06/10 05:55:20;;;;;;;;;;;25.20;62.50;;;;;;5045535;28;43065;-80
2023/06/10 05:57:46;;;;;;;;;;;;;;;;;;5043795;28;43142;-81
2023/06/10 06:00:12;;;;;;;;;;;25.20;62.70;;;;;;5044572;28;43833;-80
2023/06/10 06:02:37;;;;;;;;;;;25.20;63.30;;;;;;5043919;28;43189;-80
2023/06/10 06:05:03;;;;;;;;;;;25.20;62.70;;;;;;5043971;28;43597;-80
2023/06/10 06:07:29;;;;;;;;;;;;;;;;;;5035839;28;43243;-79
2023/06/10 06:09:54;;;;;;;;;;;25.30;62.80;;;;;;5036834;28;43826;-80
2023/06/10 06:12:19;;;;;;;;;;;25.30;62.80;;;;;;5034320;28;42863;-80
2023/06/10 06:14:45;;;;;;;;;;;25.30;62.80;;;;;;5035131;28;43137;-80
2023/06/10 06:17:10;;;;;;;;;;;25.30;62.80;;;;;;5037831;28;43151;-80
2023/06/10 06:19:36;;;;;;;;;;;25.30;62.80;;;;;;5038697;28;42998;-80
2023/06/10 06:22:02;;;;;;;;;;;25.30;62.80;;;;;;5043767;28;43079;-80
2023/06/10 06:24:27;;;;;;;;;;;25.30;62.90;;;;;;5044239;28;43776;-80
2023/06/10 06:26:53;;;;;;;;;;;25.30;62.90;;;;;;5042388;28;43063;-80
2023/06/10 06:29:18;;;;;;;;;;;25.30;62.90;;;;;;5043548;28;43045;-81
2023/06/10 06:31:44;;;;;;;;;;;25.30;63.00;;;;;;5044573;28;43021;-81
2023/06/10 06:34:10;;;;;;;;;;;25.30;63.00;;;;;;5037018;28;43144;-82
2023/06/10 06:36:35;;;;;;;;;;;25.30;63.10;;;;;;5045938;28;43083;-82
2023/06/10 06:39:00;;;;;;;;;;;25.30;63.20;;;;;;5034536;28;43035;-79
2023/06/10 06:41:26;;;;;;;;;;;25.30;63.40;;;;;;5038484;28;42999;-81
2023/06/10 06:43:53;;;;;;;;;;;25.30;63.60;;;;;;5038215;28;43072;-82
2023/06/10 06:46:18;;;;;;;;;;;25.30;64.20;;;;;;5041160;28;42917;-80
2023/06/10 06:48:44;;;;;;;;;;;25.30;63.70;;;;;;5044616;28;43027;-82
2023/06/10 06:51:09;;;;;;;;;;;25.30;63.80;;;;;;5044340;28;43014;-82
2023/06/10 06:53:36;;;;;;;;;;;25.30;63.80;;;;;;5044985;28;43901;-83
2023/06/10 06:56:02;;;;;;;;;;;25.30;63.80;;;;;;5044105;28;43001;-81
2023/06/10 06:58:28;;;;;;;;;;;25.30;63.80;;;;;;5043923;28;43765;-81
2023/06/10 07:00:53;;;;;;;;;;;25.30;63.80;;;;;;5031053;28;43912;-80
2023/06/10 07:03:19;;;;;;;;;;;25.30;63.80;;;;;;5036435;28;42985;-81
2023/06/10 07:05:44;;;;;;;;;;;25.30;63.70;;;;;;5044267;28;42970;-81
2023/06/10 07:08:11;;;;;;;;;;;25.30;63.80;;;;;;5043560;28;43437;-82
2023/06/10 07:10:37;;;;;;;;;;;25.30;63.80;;;;;;5026218;28;44399;-81
2023/06/10 07:13:02;;;;;;;;;;;25.30;63.90;;;;;;5043259;28;43107;-80
2023/06/10 07:15:28;;;;;;;;;;;25.30;63.90;;;;;;5022133;28;43452;-82
2023/06/10 07:17:55;;;;;;;;;;;25.30;63.90;;;;;;5033470;28;43138;-81
2023/06/10 07:20:20;;;;;;;;;;;25.30;63.80;;;;;;5044058;28;43075;-81
2023/06/10 07:22:46;;;;;;;;;;;25.30;61.50;;;;;;5044755;28;42957;-83
2023/06/10 07:25:11;;;;;;;;;;;25.30;61.30;;;;;;5044582;28;43314;-85
2023/06/10 07:27:37;;;;;;;;;;;25.30;61.30;;;;;;5043806;28;43579;-82
2023/06/10 07:30:04;;;;;;;;;;;25.30;60.80;;;;;;5043429;28;42975;-81
2023/06/10 07:32:30;;;;;;;;;;;25.30;61.40;;;;;;5039460;28;43975;-81
2023/06/10 07:34:55;;;;;;;;;;;25.20;60.60;;;;;;5024539;28;43019;-79
2023/06/10 07:37:21;;;;;;;;;;;25.20;60.80;;;;;;5041439;28;43298;-79
2023/06/10 07:39:46;;;;;;;;;;;25.20;61.20;;;;;;5041976;28;42937;-79
2023/06/10 07:42:12;;;;;;;;;;;25.20;61.50;;;;;;5043477;28;43871;-79
2023/06/10 07:44:37;;;;;;;;;;;25.10;60.50;;;;;;5041559;28;42875;-79
2023/06/10 07:47:03;;;;;;;;;;;25.10;60.40;;;;;;5043480;28;43010;-79
2023/06/10 07:49:28;;;;;;;;;;;25.20;60.80;;;;;;5025215;28;42963;-79
2023/06/10 07:51:54;;;;;;;;;;;25.10;59.60;;;;;;5040393;28;43322;-79
2023/06/10 07:54:20;;;;;;;;;;;25.10;59.40;;;;;;5035176;28;43052;-79
2023/06/10 07:56:45;;;;;;;;;;;25.20;59.40;;;;;;5043297;28;43409;-79
2023/06/10 07:59:11;;;;;;;;;;;25.10;59.80;;;;;;5043750;28;42979;-80
2023/06/10 08:01:39;;;;;;;;;;;25.10;59.50;;;;;;5043563;28;42985;-79
2023/06/10 08:04:04;;;;;;;;;;;25.10;59.30;;;;;;5043274;28;42899;-78
2023/06/10 08:06:30;;;;;;;;;;;25.10;59.20;;;;;;5043322;28;42984;-78
2023/06/10 08:08:55;;;;;;;;;;;25.10;59.20;;;;;;5043223;28;43076;-79
2023/06/10 08:11:21;;;;;;;;;;;25.10;59.30;;;;;;5042639;28;43660;-79
2023/06/10 08:13:47;;;;;;;;;;;25.10;59.30;;;;;;5042153;28;42956;-79
2023/06/10 08:16:12;;;;;;;;;;;25.10;59.30;;;;;;5024598;28;43154;-80
2023/06/10 08:18:37;;;;;;;;;;;25.10;59.30;;;;;;5043439;28;42796;-81
2023/06/10 08:21:03;;;;;;;;;;;25.10;59.40;;;;;;5024711;28;44468;-79
2023/06/10 08:23:29;;;;;;;;;;;25.10;60.60;;;;;;5042681;28;42954;-81
2023/06/10 08:25:54;;;;;;;;;;;25.10;59.30;;;;;;5041855;28;43408;-78
2023/06/10 08:28:20;;;;;;;;;;;25.10;59.30;;;;;;5042277;28;43515;-79
2023/06/10 08:30:45;;;;;;;;;;;25.10;59.80;;;;;;5043088;28;43120;-78
2023/06/10 08:33:11;;;;;;;;;;;25.10;59.30;;;;;;5036785;28;42832;-79
2023/06/10 08:35:36;;;;;;;;;;;25.10;59.30;;;;;;5036930;28;43845;-79
2023/06/10 08:38:02;;;;;;;;;;;25.10;59.30;;;;;;5043547;28;42852;-79
2023/06/10 08:40:27;;;;;;;;;;;25.10;59.30;;;;;;5043025;28;42990;-78
2023/06/10 08:42:57;;;;;;;;;;;25.10;59.90;;;;;;5043445;28;42935;-79
2023/06/10 08:45:23;;;;;;;;;;;25.10;59.40;;;;;;5026331;28;43175;-79
2023/06/10 08:47:51;;;;;;;;;;;25.10;59.00;;;;;;5046226;28;43051;-79
2023/06/10 08:50:17;;;;;;;;;;;25.10;59.60;;;;;;5045519;28;43611;-80
2023/06/10 08:52:44;;;;;;;;;;;25.10;59.00;;;;;;5046191;28;42975;-79
2023/06/10 08:55:11;;;;;;;;;;;25.10;59.50;;;;;;5045682;28;43432;-79
2023/06/10 08:57:36;;;;;;;;;;;25.10;59.00;;;;;;5046172;28;42896;-79
2023/06/10 09:00:02;;;;;;;;;;;25.10;59.60;;;;;;5047287;28;42979;-79
2023/06/10 09:02:28;;;;;;;;;;;25.10;59.10;;;;;;5038711;28;42939;-80
2023/06/10 09:04:55;;;;;;;;;;;25.10;59.10;;;;;;5045547;28;43602;-80
2023/06/10 09:07:21;;;;;;;;;;;25.10;59.10;;;;;;5046530;28;43157;-79
2023/06/10 09:09:46;;;;;;;;;;;25.10;59.10;;;;;;5046299;28;43078;-79
2023/06/10 09:12:12;;;;;;;;;;;25.10;59.70;;;;;;5047160;28;43170;-78
2023/06/10 09:14:38;;;;;;;;;;;25.10;59.70;;;;;;5045931;28;43052;-80
2023/06/10 09:17:04;;;;;;;;;;;25.10;59.10;;;;;;5045909;28;42951;-79
2023/06/10 09:19:30;;;;;;;;;;;25.10;59.00;;;;;;5044883;28;43588;-80
2023/06/10 09:21:56;;;;;;;;;;;25.10;59.00;;;;;;5045499;28;43219;-79
2023/06/10 09:24:24;;;;;;;;;;;25.10;59.00;;;;;;5044645;28;43661;-79
2023/06/10 09:26:50;;;;;;;;;;;25.20;59.00;;;;;;5043804;28;42999;-78
2023/06/10 09:29:16;;;;;;;;;;;25.20;58.90;;;;;;5027797;28;43066;-79
2023/06/10 09:31:44;;;;;;;;;;;25.20;58.90;;;;;;5046394;28;42975;-80
2023/06/10 09:34:11;;;;;;;;;;;25.20;58.80;;;;;;5045859;28;43502;-79
2023/06/10 09:36:37;;;;;;;;;;;25.20;58.80;;;;;;5045631;28;43035;-79
2023/06/10 09:39:03;;;;;;;;;;;25.20;58.80;;;;;;5044909;28;42958;-79
2023/06/10 09:41:33;;;;;;;;;;;25.20;58.80;;;;;;5039886;28;43290;-79
2023/06/10 09:43:58;;;;;;;;;;;25.20;58.80;;;;;;5021175;28;45446;-78
2023/06/10 09:46:25;;;;;;;;;;;;;;;;;;5037960;28;43009;-79
2023/06/10 09:48:50;;;;;;;;;;;25.20;58.80;;;;;;5036611;28;42979;-79
2023/06/10 09:51:19;;;;;;;;;;;25.20;59.40;;;;;;5045793;28;42984;-79
2023/06/10 09:53:48;;;;;;;;;;;21.70;57.00;;;;;;5038188;28;44030;-78
2023/06/10 09:56:14;;;;;;;;;;;25.20;58.80;;;;;;5038999;28;42959;-79
2023/06/10 09:58:42;;;;;;;;;;;25.20;58.80;;;;;;5036757;28;43591;-86
2023/06/10 10:01:11;;;;;;;;;;;25.20;58.80;;;;;;5045302;28;42912;-87
2023/06/10 10:03:47;;;;;;;;;;;25.20;58.80;;;;;;5039888;28;43047;-86
2023/06/10 10:06:14;;;;;;;;;;;25.20;58.60;;;;;;5040784;28;43008;-84
2023/06/10 10:08:39;;;;;;;;;;;25.20;58.60;;;;;;5015272;28;43491;-86
2023/06/10 10:11:05;;;;;;;;;;;25.20;58.60;;;;;;5025336;28;42996;-85
2023/06/10 10:13:32;;;;;;;;;;;25.30;58.60;;;;;;5041409;28;43802;-87
2023/06/10 10:16:01;;;;;;;;;;;;;;;;;;5016563;28;43050;-87
2023/06/10 10:18:28;;;;;;;;;;;25.30;58.70;;;;;;5023841;28;44682;-86
2023/06/10 10:20:55;;;;;;;;;;;25.30;58.60;;;;;;5009532;28;43122;-85
2023/06/10 10:23:31;;;;;;;;;;;25.30;58.60;;;;;;5025275;28;45462;-85
2023/06/10 10:25:58;;;;;;;;;;;25.20;58.40;;;;;;5023309;28;43070;-87
2023/06/10 10:28:34;;;;;;;;;;;25.20;58.70;;;;;;5036022;28;43321;-85
2023/06/10 10:31:10;;;;;;;;;;;25.30;58.80;;;;;;5030475;28;43573;-86
2023/06/10 10:33:38;;;;;;;;;;;25.30;58.90;;;;;;5027939;28;45624;-85
2023/06/10 10:36:25;;;;;;;;;;;25.30;58.90;;;;;;5026240;28;43389;-86
2023/06/10 10:38:50;;;;;;;;;;;25.20;59.10;;;;;;5040143;28;43479;-86
2023/06/10 10:41:16;;;;;;;;;;;25.20;59.30;;;;;;5042661;28;43012;-87
2023/06/10 10:43:43;;;;;;;;;;;25.30;59.50;;;;;;5044233;28;43034;-86
2023/06/10 10:46:16;;;;;;;;;;;25.20;59.70;;;;;;5042856;28;42992;-86
2023/06/10 10:48:45;;;;;;;;;;;25.10;59.60;;;;;;5026273;28;43504;-86
2023/06/10 10:51:11;;;;;;;;;;;25.30;59.80;;;;;;5036973;28;43016;-88
2023/06/10 10:53:37;;;;;;;;;;;25.20;59.70;;;;;;5019983;28;45308;-87
2023/06/10 10:56:14;;;;;;;;;;;25.30;59.90;;;;;;5042787;28;43031;-83
2023/06/10 10:58:39;;;;;;;;;;;25.20;59.90;;;;;;5026532;28;45556;-87
2023/06/10 11:01:12;;;;;;;;;;;25.20;60.00;;;;;;5023927;28;43025;-86
2023/06/10 11:03:47;;;;;;;;;;;25.20;60.10;;;;;;5016504;28;43924;-86
2023/06/10 11:06:16;;;;;;;;;;;25.20;60.00;;;;;;5026951;28;43095;-79
2023/06/10 11:08:43;;;;;;;;;;;;;;;;;;5041727;28;42990;-83
2023/06/10 11:11:20;;;;;;;;;;;25.20;60.00;;;;;;5042331;28;43016;-79
2023/06/10 11:14:04;;;;;;;;;;;25.20;60.00;;;;;;5042240;28;43023;-77
2023/06/10 11:16:37;;;;;;;;;;;25.20;59.90;;;;;;5044075;28;43045;-78
2023/06/10 11:19:03;;;;;;;;;;;25.20;60.00;;;;;;5044633;28;43438;-77
2023/06/10 11:21:28;;;;;;;;;;;25.20;59.90;;;;;;5043788;28;43057;-79
2023/06/10 11:23:57;;;;;;;;;;;25.20;59.80;;;;;;5041922;28;43643;-77
2023/06/10 11:26:30;;;;;;;;;;;25.20;59.80;;;;;;5043279;28;43216;-77
2023/06/10 11:28:56;;;;;;;;;;;25.20;59.80;;;;;;5029452;28;43910;-78
2023/06/10 11:31:22;;;;;;;;;;;25.30;59.80;;;;;;5038170;28;42948;-78
2023/06/10 11:33:51;;;;;;;;;;;24.50;59.40;;;;;;5040723;28;42966;-78
2023/06/10 11:36:17;;;;;;;;;;;25.30;59.70;;;;;;5043460;28;42728;-79
2023/06/10 11:38:43;;;;;;;;;;;25.30;59.70;;;;;;5038770;28;42898;-77
2023/06/10 11:41:09;;;;;;;;;;;25.30;59.60;;;;;;5037255;28;42962;-83
2023/06/10 11:43:35;;;;;;;;;;;25.30;59.60;;;;;;5043607;28;43578;-83
2023/06/10 11:46:01;;;;;;;;;;;;;;;;;;5042893;28;43014;-83
2023/06/10 11:48:31;;;;;;;;;;;25.30;59.40;;;;;;5024796;28;44275;-83
2023/06/10 11:50:56;;;;;;;;;;;25.20;59.40;;;;;;5042396;28;42984;-83
2023/06/10 11:53:22;;;;;;;;;;;25.30;59.40;;;;;;5020769;28;45027;-80
2023/06/10 11:55:48;;;;;;;;;;;;;;;;;;5036153;28;42919;-83
2023/06/10 11:58:13;;;;;;;;;;;25.30;59.50;;;;;;5042294;28;43609;-82
2023/06/10 12:00:47;;;;;;;;;;;25.30;59.60;;;;;;5039311;28;42875;-83
2023/06/10 12:03:13;;;;;;;;;;;25.30;59.80;;;;;;5041511;28;42733;-83
2023/06/10 12:05:39;;;;;;;;;;;25.30;59.80;;;;;;5042610;28;42963;-83
2023/06/10 12:08:08;;;;;;;;;;;25.30;59.70;;;;;;5037380;28;43675;-83
2023/06/10 12:10:38;;;;;;;;;;;25.30;59.70;;;;;;5020168;28;43087;-83
2023/06/10 12:13:04;;;;;;;;;;;25.40;59.90;;;;;;5035349;28;43480;-83
2023/06/10 12:15:30;;;;;;;;;;;25.30;59.80;;;;;;5038194;28;43003;-83
2023/06/10 12:17:56;;;;;;;;;;;25.30;59.80;;;;;;5042893;28;43990;-83
2023/06/10 12:20:25;;;;;;;;;;;25.40;59.90;;;;;;5046796;28;43004;-82
2023/06/10 12:22:51;;;;;;;;;;;25.30;60.10;;;;;;5040521;28;45384;-83
2023/06/10 12:25:16;;;;;;;;;;;25.40;60.20;;;;;;5046569;28;43197;-83
2023/06/10 12:27:52;;;;;;;;;;;25.30;60.30;;;;;;5041483;28;42922;-82
2023/06/10 12:30:23;;;;;;;;;;;25.30;60.10;;;;;;5034223;28;43124;-83
2023/06/10 12:32:48;;;;;;;;;;;25.40;60.10;;;;;;5046004;28;43498;-83
2023/06/10 12:35:17;;;;;;;;;;;25.30;60.20;;;;;;5046147;28;43061;-83
2023/06/10 12:37:54;;;;;;;;;;;25.30;60.00;;;;;;5046246;28;43870;-83
2023/06/10 12:40:25;;;;;;;;;;;25.30;59.90;;;;;;5045274;28;43022;-82
2023/06/10 12:42:50;;;;;;;;;;;25.30;60.00;;;;;;5041524;28;44034;-83
2023/06/10 12:45:26;;;;;;;;;;;25.30;60.00;;;;;;5028328;28;44006;-84
2023/06/10 12:47:51;;;;;;;;;;;25.30;60.00;;;;;;5021554;28;43744;-87
2023/06/10 12:50:17;;;;;;;;;;;25.30;60.00;;;;;;5044652;28;43407;-85
2023/06/10 12:52:42;;;;;;;;;;;25.30;59.90;;;;;;5047207;28;45192;-83
2023/06/10 12:55:08;;;;;;;;;;;25.30;59.70;;;;;;5066833;28;42999;-83
2023/06/10 12:57:33;;;;;;;;;;;25.40;59.60;;;;;;5064634;28;42988;-83
2023/06/10 13:00:03;;;;;;;;;;;25.40;59.60;;;;;;5066211;28;42976;-82
2023/06/10 13:02:29;;;;;;;;;;;25.40;59.40;;;;;;5066774;28;43026;-84
2023/06/10 13:04:54;;;;;;;;;;;25.40;59.40;;;;;;5066815;28;42979;-83
2023/06/10 13:07:22;;;;;;;;;;;25.40;59.40;;;;;;5065843;28;42991;-83
2023/06/10 13:09:48;;;;;;;;;;;25.40;59.20;;;;;;5056830;28;43034;-83
2023/06/10 13:12:14;;;;;;;;;;;25.20;59.00;;;;;;5063946;28;43475;-84
2023/06/10 13:14:39;;;;;;;;;;;25.40;59.00;;;;;;5066833;28;43030;-83
2023/06/10 13:17:06;;;;;;;;;;;25.30;59.00;;;;;;5066210;28;42922;-82
2023/06/10 13:19:33;;;;;;;;;;;25.40;59.10;;;;;;5066644;28;42978;-83
2023/06/10 13:21:58;;;;;;;;;;;25.40;59.10;;;;;;5066213;28;43041;-83
2023/06/10 13:24:24;;;;;;;;;;;25.40;59.20;;;;;;5064548;28;43205;-84
2023/06/10 13:26:49;;;;;;;;;;;25.40;59.20;;;;;;5059391;28;42999;-83
2023/06/10 13:29:15;;;;;;;;;;;25.40;59.20;;;;;;5066265;28;43215;-83
2023/06/10 13:31:41;;;;;;;;;;;25.40;59.20;;;;;;5060578;28;43535;-83
2023/06/10 13:34:06;;;;;;;;;;;25.40;59.10;;;;;;5065074;28;42986;-84
2023/06/10 13:36:32;;;;;;;;;;;25.40;59.30;;;;;;5064285;28;43470;-82
2023/06/10 13:38:58;;;;;;;;;;;25.30;59.10;;;;;;5065081;28;42947;-83
2023/06/10 13:41:24;;;;;;;;;;;25.40;59.20;;;;;;5064552;28;43807;-83
2023/06/10 13:43:49;;;;;;;;;;;25.20;59.10;;;;;;5064881;28;43808;-83
2023/06/10 13:46:15;;;;;;;;;;;25.30;59.30;;;;;;5063711;28;43553;-78
2023/06/10 13:48:40;;;;;;;;;;;25.40;59.90;;;;;;5056215;28;43117;-83
2023/06/10 13:51:06;;;;;;;;;;;25.30;59.30;;;;;;5051017;28;43023;-83
2023/06/10 13:53:32;;;;;;;;;;;25.40;59.30;;;;;;5065899;28;42959;-83
2023/06/10 13:55:57;;;;;;;;;;;25.50;59.80;;;;;;5064328;28;43222;-84
2023/06/10 13:58:23;;;;;;;;;;;25.40;59.10;;;;;;5066935;28;42943;-84
2023/06/10 14:00:49;;;;;;;;;;;25.40;59.70;;;;;;5065399;28;43511;-83
2023/06/10 14:03:14;;;;;;;;;;;25.40;59.10;;;;;;5060590;28;42966;-82
2023/06/10 14:05:40;;;;;;;;;;;25.30;59.10;;;;;;5046012;28;43594;-83
2023/06/10 14:08:05;;;;;;;;;;;25.30;59.00;;;;;;5036639;28;42972;-82
2023/06/10 14:10:31;;;;;;;;;;;25.40;58.90;;;;;;5057099;28;43208;-84
2023/06/10 14:12:56;;;;;;;;;;;25.30;58.80;;;;;;5052201;28;43014;-84
2023/06/10 14:15:22;;;;;;;;;;;25.30;58.90;;;;;;5056788;28;43769;-84
2023/06/10 14:17:47;;;;;;;;;;;25.30;58.80;;;;;;5054790;28;43242;-83